createdAt,value
2019-06-26T00:01:37.157Z,62.60
2019-06-26T00:04:06.645Z,59.75
2019-06-26T00:06:37.081Z,49.27
2019-06-26T00:09:09.078Z,42.90
2019-06-26T00:11:39.312Z,42.75
2019-06-26T00:14:08.873Z,37.53
2019-06-26T00:16:38.367Z,37.23
2019-06-26T00:19:07.827Z,36.85
2019-06-26T00:21:37.295Z,35.20
2019-06-26T00:24:06.735Z,37.33
2019-06-26T00:26:36.222Z,36.33
2019-06-26T00:29:05.686Z,42.75
2019-06-26T00:31:35.153Z,42.05
2019-06-26T00:34:04.627Z,43.55
2019-06-26T00:36:39.884Z,42.35
2019-06-26T00:39:09.334Z,40.52
2019-06-26T00:41:38.788Z,38.38
2019-06-26T00:44:08.326Z,39.90
2019-06-26T00:46:38.137Z,40.15
2019-06-26T00:49:07.609Z,42.38
2019-06-26T00:51:37.060Z,40.90
2019-06-26T00:54:06.604Z,44.73
2019-06-26T00:56:37.982Z,35.68
2019-06-26T00:59:07.458Z,31.50
2019-06-26T01:01:36.890Z,31.27
2019-06-26T01:04:08.013Z,35.15
2019-06-26T01:06:41.366Z,33.25
2019-06-26T01:09:11.295Z,32.13
2019-06-26T01:11:40.838Z,35.38
2019-06-26T01:14:10.417Z,33.35
2019-06-26T01:16:39.965Z,33.30
2019-06-26T01:19:09.479Z,31.30
2019-06-26T01:21:39.000Z,28.10
2019-06-26T01:24:08.607Z,31.27
2019-06-26T01:26:38.131Z,29.63
2019-06-26T01:29:07.597Z,32.40
2019-06-26T01:31:37.115Z,30.65
2019-06-26T01:34:06.607Z,33.13
2019-06-26T01:36:37.697Z,32.28
2019-06-26T01:39:07.515Z,31.10
2019-06-26T01:41:36.968Z,35.75
2019-06-26T01:44:14.648Z,25.12
2019-06-26T01:46:39.977Z,35.92
2019-06-26T01:49:09.446Z,37.23
2019-06-26T01:51:38.925Z,31.20
2019-06-26T01:54:08.404Z,31.17
2019-06-26T01:56:37.864Z,35.13
2019-06-26T01:59:07.334Z,35.15
2019-06-26T02:01:36.797Z,35.90
2019-06-26T02:04:06.259Z,36.95
2019-06-26T02:06:41.428Z,37.08
2019-06-26T02:09:10.879Z,40.45
2019-06-26T02:11:40.352Z,39.92
2019-06-26T02:14:09.821Z,37.42
2019-06-26T02:16:39.299Z,41.63
2019-06-26T02:19:10.379Z,40.25
2019-06-26T02:21:39.830Z,44.30
2019-06-26T02:24:09.287Z,36.28
2019-06-26T02:26:40.605Z,37.40
2019-06-26T02:29:10.097Z,33.08
2019-06-26T02:31:39.534Z,32.00
2019-06-26T02:34:25.861Z,46.77
2019-06-26T02:36:52.400Z,40.48
2019-06-26T02:39:21.853Z,41.48
2019-06-26T02:41:51.325Z,41.80
2019-06-26T02:44:22.304Z,39.48
2019-06-26T02:46:52.046Z,39.92
2019-06-26T02:49:21.783Z,34.43
2019-06-26T02:51:51.299Z,43.10
2019-06-26T02:54:20.756Z,42.27
2019-06-26T02:56:50.245Z,36.33
2019-06-26T02:59:19.687Z,41.13
2019-06-26T03:01:49.182Z,39.63
2019-06-26T03:04:24.783Z,41.45
2019-06-26T03:06:54.216Z,40.43
2019-06-26T03:09:23.683Z,39.10
2019-06-26T03:11:53.135Z,36.33
2019-06-26T03:14:22.622Z,37.05
2019-06-26T03:16:52.099Z,36.60
2019-06-26T03:19:26.728Z,36.85
2019-06-26T03:21:56.172Z,36.00
2019-06-26T03:24:25.648Z,30.32
2019-06-26T03:26:55.123Z,39.35
2019-06-26T03:29:24.562Z,33.18
2019-06-26T03:31:54.002Z,35.15
2019-06-26T03:34:23.458Z,36.75
2019-06-26T03:36:52.895Z,36.75
2019-06-26T03:39:22.351Z,36.48
2019-06-26T03:41:51.832Z,36.40
2019-06-26T03:44:21.304Z,36.95
2019-06-26T03:46:50.774Z,31.12
2019-06-26T03:49:20.262Z,36.90
2019-06-26T03:51:49.785Z,34.95
2019-06-26T03:54:19.230Z,36.65
2019-06-26T03:56:48.713Z,32.50
2019-06-26T03:59:18.175Z,32.95
2019-06-26T04:01:47.670Z,39.73
2019-06-26T04:04:37.124Z,41.77
2019-06-26T04:07:08.624Z,35.90
2019-06-26T04:09:37.740Z,33.20
2019-06-26T04:12:07.175Z,34.73
2019-06-26T04:14:36.696Z,34.80
2019-06-26T04:17:07.100Z,33.20
2019-06-26T04:19:36.512Z,35.73
2019-06-26T04:22:05.981Z,47.33
2019-06-26T04:24:35.411Z,30.82
2019-06-26T04:27:04.991Z,37.70
2019-06-26T04:29:39.449Z,34.35
2019-06-26T04:32:09.052Z,37.20
2019-06-26T04:34:38.500Z,38.45
2019-06-26T04:37:07.967Z,37.20
2019-06-26T04:39:37.416Z,42.35
2019-06-26T04:42:06.879Z,39.95
2019-06-26T04:44:36.431Z,38.78
2019-06-26T04:47:05.959Z,41.53
2019-06-26T04:49:35.421Z,35.83
2019-06-26T04:52:08.032Z,43.02
2019-06-26T04:54:37.551Z,40.50
2019-06-26T04:57:08.743Z,36.53
2019-06-26T04:59:41.018Z,36.45
2019-06-26T05:02:10.557Z,36.85
2019-06-26T05:04:41.567Z,39.92
2019-06-26T05:09:38.709Z,37.30
2019-06-26T05:12:08.156Z,43.63
2019-06-26T05:14:37.624Z,38.65
2019-06-26T05:17:07.157Z,41.68
2019-06-26T05:19:36.622Z,41.08
2019-06-26T05:22:08.198Z,44.48
2019-06-26T05:24:37.647Z,41.42
2019-06-26T05:27:07.083Z,39.63
2019-06-26T05:29:36.770Z,41.40
2019-06-26T05:32:06.209Z,34.08
2019-06-26T05:34:35.855Z,40.65
2019-06-26T05:37:05.566Z,39.60
2019-06-26T05:39:35.469Z,41.75
2019-06-26T05:42:06.829Z,41.20
2019-06-26T05:44:37.883Z,40.03
2019-06-26T05:47:11.309Z,35.20
2019-06-26T05:49:43.340Z,35.50
2019-06-26T05:52:23.423Z,30.12
2019-06-26T05:54:54.620Z,30.60
2019-06-26T05:57:25.792Z,29.75
2019-06-26T05:59:57.294Z,29.72
2019-06-26T06:02:28.417Z,29.02
2019-06-26T06:05:06.591Z,25.88
2019-06-26T06:07:43.973Z,26.80
2019-06-26T06:10:18.328Z,22.52
2019-06-26T06:13:01.489Z,23.20
2019-06-26T06:15:43.496Z,18.98
2019-06-26T06:18:19.588Z,20.05
2019-06-26T06:21:02.248Z,20.70
2019-06-26T06:23:43.292Z,18.32
2019-06-26T06:26:24.056Z,20.40
2019-06-26T06:28:53.622Z,19.42
2019-06-26T06:31:39.163Z,18.67
2019-06-26T06:34:07.335Z,19.20
2019-06-26T06:36:36.853Z,16.32
2019-06-26T06:39:07.385Z,18.07
2019-06-26T06:41:51.004Z,16.75
2019-06-26T06:44:27.230Z,16.32
2019-06-26T06:47:04.027Z,16.02
2019-06-26T06:49:27.961Z,15.15
2019-06-26T06:51:57.440Z,14.90
2019-06-26T06:57:48.374Z,12.78
2019-06-26T07:03:19.075Z,14.95
2019-06-26T07:05:48.525Z,15.55
2019-06-26T07:08:17.976Z,16.93
2019-06-26T07:10:47.836Z,17.73
2019-06-26T07:13:22.075Z,17.82
2019-06-26T07:15:51.539Z,21.90
2019-06-26T07:21:26.763Z,20.65
2019-06-26T07:23:56.299Z,22.80
2019-06-26T07:26:25.742Z,22.95
2019-06-26T07:28:56.908Z,22.20
2019-06-26T07:31:26.491Z,27.73
2019-06-26T07:33:57.518Z,22.20
2019-06-26T07:36:27.066Z,23.55
2019-06-26T07:38:56.519Z,22.10
2019-06-26T07:41:28.774Z,20.30
2019-06-26T07:43:59.498Z,21.42
2019-06-26T07:46:30.605Z,23.52
2019-06-26T07:49:00.080Z,22.00
2019-06-26T07:51:31.045Z,25.50
2019-06-26T07:54:17.435Z,23.10
2019-06-26T07:56:46.921Z,20.25
2019-06-26T07:59:16.414Z,21.90
2019-06-26T08:01:55.172Z,21.52
2019-06-26T08:04:46.045Z,23.12
2019-06-26T08:07:30.223Z,26.37
2019-06-26T08:10:06.168Z,22.48
2019-06-26T08:12:43.243Z,21.62
2019-06-26T08:15:35.276Z,20.17
2019-06-26T08:18:05.161Z,25.05
2019-06-26T08:20:50.223Z,28.62
2019-06-26T08:23:06.272Z,26.15
2019-06-26T08:25:36.675Z,23.25
2019-06-26T08:28:06.150Z,24.35
2019-06-26T08:30:35.654Z,23.67
2019-06-26T08:33:19.103Z,22.87
2019-06-26T08:35:48.592Z,24.67
2019-06-26T08:38:19.704Z,28.05
2019-06-26T08:41:09.617Z,27.87
2019-06-26T08:43:47.378Z,23.12
2019-06-26T08:46:16.877Z,28.10
2019-06-26T08:48:46.292Z,24.95
2019-06-26T08:51:15.740Z,28.07
2019-06-26T08:54:08.287Z,28.05
2019-06-26T08:56:46.498Z,28.10
2019-06-26T09:02:08.014Z,24.50
2019-06-26T09:04:44.066Z,23.32
2019-06-26T09:07:11.116Z,22.82
2019-06-26T09:10:05.430Z,25.95
2019-06-26T09:12:38.530Z,26.93
2019-06-26T09:15:09.695Z,27.35
2019-06-26T09:17:50.513Z,29.98
2019-06-26T09:20:30.815Z,25.02
2019-06-26T09:23:00.275Z,28.55
2019-06-26T09:25:45.469Z,23.25
2019-06-26T09:28:14.667Z,31.37
2019-06-26T09:30:44.546Z,23.18
2019-06-26T09:33:27.333Z,22.55
2019-06-26T09:35:56.568Z,26.30
2019-06-26T09:38:26.016Z,24.43
2019-06-26T09:41:00.162Z,23.30
2019-06-26T09:43:29.650Z,26.90
2019-06-26T09:45:59.113Z,25.62
2019-06-26T09:48:51.452Z,23.30
2019-06-26T09:51:08.382Z,20.92
2019-06-26T09:53:47.089Z,18.67
2019-06-26T09:56:12.966Z,20.15
2019-06-26T09:58:42.404Z,21.12
2019-06-26T10:01:19.970Z,21.70
2019-06-26T10:03:49.572Z,19.75
2019-06-26T10:06:19.003Z,22.90
2019-06-26T10:11:42.398Z,20.23
2019-06-26T10:14:14.770Z,23.98
2019-06-26T10:16:44.394Z,19.80
2019-06-26T10:19:22.406Z,20.10
2019-06-26T10:21:53.506Z,20.32
2019-06-26T10:24:22.965Z,20.55
2019-06-26T10:26:52.431Z,19.40
2019-06-26T10:29:35.014Z,28.25
2019-06-26T10:32:04.590Z,18.82
2019-06-26T10:34:34.032Z,18.42
2019-06-26T10:37:03.559Z,17.37
2019-06-26T10:42:36.928Z,20.20
2019-06-26T10:45:09.281Z,20.97
2019-06-26T10:47:46.649Z,19.23
2019-06-26T10:50:21.784Z,20.92
2019-06-26T10:53:01.280Z,18.98
2019-06-26T10:55:56.606Z,17.77
2019-06-26T10:58:24.731Z,17.65
2019-06-26T11:00:58.566Z,17.05
2019-06-26T11:06:17.963Z,20.17
2019-06-26T11:09:14.938Z,19.12
2019-06-26T11:15:06.087Z,11.68
2019-06-26T11:17:34.994Z,11.08
2019-06-26T11:20:07.236Z,9.80
2019-06-26T11:22:48.338Z,12.88
2019-06-26T11:25:21.742Z,11.83
2019-06-26T11:28:02.186Z,8.45
2019-06-26T11:30:26.716Z,9.88
2019-06-26T11:35:51.441Z,10.28
2019-06-26T11:38:20.931Z,13.10
2019-06-26T11:41:06.087Z,13.58
2019-06-26T11:43:35.546Z,15.98
2019-06-26T11:51:54.376Z,12.07
2019-06-26T11:54:23.811Z,10.18
2019-06-26T11:56:54.114Z,15.72
2019-06-26T12:02:36.696Z,12.73
2019-06-26T12:05:09.743Z,16.73
2019-06-26T12:07:45.928Z,14.13
2019-06-26T12:10:11.196Z,14.87
2019-06-26T12:12:40.846Z,11.28
2019-06-26T12:15:12.334Z,14.10
2019-06-26T12:17:41.887Z,13.10
2019-06-26T12:23:00.936Z,11.78
2019-06-26T12:28:45.436Z,12.88
2019-06-26T12:31:17.828Z,11.78
2019-06-26T12:33:47.304Z,14.25
2019-06-26T12:36:22.191Z,11.20
2019-06-26T12:38:57.561Z,13.20
2019-06-26T12:41:27.076Z,12.00
2019-06-26T12:46:36.767Z,10.75
2019-06-26T12:49:08.919Z,14.80
2019-06-26T12:51:37.746Z,13.72
2019-06-26T12:54:07.312Z,13.83
2019-06-26T12:56:38.336Z,9.75
2019-06-26T12:59:18.066Z,14.10
2019-06-26T13:01:49.243Z,12.70
2019-06-26T13:04:21.830Z,11.53
2019-06-26T13:06:51.396Z,10.80
2019-06-26T13:12:10.963Z,10.13
2019-06-26T13:14:40.536Z,12.03
2019-06-26T13:17:09.989Z,11.60
2019-06-26T13:19:39.463Z,9.43
2019-06-26T13:22:09.193Z,12.25
2019-06-26T13:24:38.658Z,13.15
2019-06-26T13:27:08.091Z,12.53
2019-06-26T13:29:40.746Z,10.48
2019-06-26T13:32:10.173Z,11.25
2019-06-26T13:34:39.691Z,12.15
2019-06-26T13:37:09.154Z,12.85
2019-06-26T13:39:48.742Z,11.93
2019-06-26T13:43:05.636Z,12.15
2019-06-26T13:49:48.545Z,9.95
2019-06-26T13:57:46.866Z,12.88
2019-06-26T14:03:25.654Z,13.18
2019-06-26T14:05:44.472Z,10.82
2019-06-26T14:08:42.366Z,11.28
2019-06-26T14:19:17.505Z,8.93
2019-06-26T14:21:55.719Z,12.55
2019-06-26T14:24:22.525Z,16.70
2019-06-26T14:26:51.710Z,7.45
2019-06-26T14:29:21.570Z,13.85
2019-06-26T14:31:51.373Z,8.83
2019-06-26T14:34:20.849Z,10.53
2019-06-26T14:36:50.307Z,10.68
2019-06-26T14:39:19.822Z,13.70
2019-06-26T14:41:49.267Z,13.05
2019-06-26T14:44:20.384Z,11.28
2019-06-26T14:46:49.891Z,8.13
2019-06-26T14:49:19.347Z,12.50
2019-06-26T14:51:48.797Z,10.35
2019-06-26T14:54:18.295Z,9.88
2019-06-26T14:56:47.754Z,10.20
2019-06-26T14:59:19.956Z,12.40
2019-06-26T15:01:57.065Z,12.55
2019-06-26T15:04:26.530Z,6.78
2019-06-26T15:07:15.157Z,14.50
2019-06-26T15:10:36.252Z,11.60
2019-06-26T15:24:56.395Z,7.58
2019-06-26T15:27:25.861Z,11.15
2019-06-26T15:29:55.306Z,11.30
2019-06-26T15:32:24.839Z,12.35
2019-06-26T15:34:56.191Z,11.43
2019-06-26T15:38:03.227Z,10.35
2019-06-26T15:40:37.568Z,11.45
2019-06-26T15:43:07.078Z,9.20
2019-06-26T15:45:36.523Z,8.98
2019-06-26T15:48:06.086Z,10.10
2019-06-26T15:50:35.548Z,12.68
2019-06-26T15:53:05.165Z,8.78
2019-06-26T15:55:34.708Z,12.18
2019-06-26T15:58:04.164Z,10.75
2019-06-26T16:00:33.635Z,13.85
2019-06-26T16:03:03.381Z,10.93
2019-06-26T16:05:32.822Z,8.15
2019-06-26T16:08:02.371Z,7.10
2019-06-26T16:10:34.445Z,9.68
2019-06-26T16:13:03.120Z,9.93
2019-06-26T16:15:33.042Z,8.73
2019-06-26T16:18:04.169Z,9.00
2019-06-26T16:20:33.625Z,8.58
2019-06-26T16:23:03.089Z,8.40
2019-06-26T16:25:32.564Z,11.75
2019-06-26T16:28:05.617Z,11.63
2019-06-26T16:30:33.227Z,8.75
2019-06-26T16:33:02.688Z,9.20
2019-06-26T16:35:32.159Z,9.68
2019-06-26T16:38:01.626Z,9.28
2019-06-26T16:40:31.515Z,11.53
2019-06-26T16:43:00.964Z,6.75
2019-06-26T16:45:30.404Z,8.28
2019-06-26T16:47:59.872Z,10.78
2019-06-26T16:50:29.358Z,8.53
2019-06-26T16:53:04.333Z,8.08
2019-06-26T16:58:02.328Z,8.68
2019-06-26T17:00:31.790Z,8.55
2019-06-26T17:03:01.240Z,6.83
2019-06-26T17:05:30.685Z,9.93
2019-06-26T17:08:00.137Z,12.43
2019-06-26T17:10:29.607Z,9.43
2019-06-26T17:12:59.046Z,11.35
2019-06-26T17:15:28.488Z,7.53
2019-06-26T17:17:57.960Z,9.43
2019-06-26T17:20:27.430Z,11.50
2019-06-26T17:23:05.557Z,11.70
2019-06-26T17:25:28.139Z,10.70
2019-06-26T17:27:57.653Z,7.28
2019-06-26T17:30:27.180Z,8.98
2019-06-26T17:32:56.633Z,10.40
2019-06-26T17:35:26.108Z,13.45
2019-06-26T17:37:55.806Z,10.20
2019-06-26T17:40:28.186Z,9.93
2019-06-26T17:43:12.017Z,9.03
2019-06-26T17:45:29.059Z,12.95
2019-06-26T17:47:58.550Z,9.10
2019-06-26T17:50:28.083Z,9.43
2019-06-26T17:52:57.902Z,10.70
2019-06-26T17:55:27.480Z,12.10
2019-06-26T17:57:56.959Z,10.82
2019-06-26T18:00:31.126Z,7.30
2019-06-26T18:03:00.594Z,7.12
2019-06-26T18:05:30.035Z,10.58
2019-06-26T18:07:59.506Z,7.20
2019-06-26T18:10:28.968Z,12.80
2019-06-26T18:12:58.663Z,12.73
2019-06-26T18:15:28.152Z,12.85
2019-06-26T18:17:57.688Z,9.98
2019-06-26T18:20:27.209Z,11.50
2019-06-26T18:23:06.374Z,13.48
2019-06-26T18:25:27.885Z,13.30
2019-06-26T18:27:57.535Z,8.58
2019-06-26T18:30:27.133Z,11.15
2019-06-26T18:32:56.604Z,11.12
2019-06-26T18:35:27.788Z,10.55
2019-06-26T18:37:57.291Z,10.95
2019-06-26T18:40:26.858Z,16.55
2019-06-26T18:42:58.009Z,16.90
2019-06-26T18:45:29.437Z,13.35
2019-06-26T18:47:59.550Z,13.48
2019-06-26T18:50:34.998Z,9.10
2019-06-26T18:53:10.318Z,13.13
2019-06-26T18:55:39.929Z,13.35
2019-06-26T18:58:12.728Z,11.55
2019-06-26T19:00:43.838Z,10.10
2019-06-26T19:06:08.342Z,13.25
2019-06-26T19:08:37.789Z,9.28
2019-06-26T19:11:08.791Z,9.50
2019-06-26T19:13:40.126Z,12.50
2019-06-26T19:16:11.226Z,13.35
2019-06-26T19:18:42.340Z,10.30
2019-06-26T19:21:11.841Z,12.33
2019-06-26T19:23:41.502Z,12.68
2019-06-26T19:26:11.190Z,8.48
2019-06-26T19:28:40.731Z,10.08
2019-06-26T19:31:11.759Z,8.28
2019-06-26T19:33:45.739Z,12.80
2019-06-26T19:36:24.195Z,11.63
2019-06-26T19:38:48.362Z,12.00
2019-06-26T19:41:17.996Z,11.43
2019-06-26T19:43:50.196Z,11.48
2019-06-26T19:46:29.152Z,11.68
2019-06-26T19:49:00.247Z,9.78
2019-06-26T19:51:31.403Z,10.10
2019-06-26T19:54:05.111Z,11.78
2019-06-26T19:59:35.135Z,9.98
2019-06-26T20:02:14.087Z,11.18
2019-06-26T20:04:48.350Z,10.32
2019-06-26T20:15:48.476Z,11.55
2019-06-26T20:21:33.620Z,11.22
2019-06-26T20:38:20.963Z,11.60
2019-06-26T20:40:50.462Z,14.47
2019-06-26T20:43:19.910Z,15.10
2019-06-26T20:45:49.419Z,12.00
2019-06-26T20:48:19.045Z,12.93
2019-06-26T20:50:51.697Z,13.65
2019-06-26T20:53:27.891Z,7.45
2019-06-26T20:55:56.788Z,9.68
2019-06-26T20:58:26.554Z,12.33
2019-06-26T21:00:56.727Z,14.07
2019-06-26T21:03:26.989Z,11.05
2019-06-26T21:05:58.151Z,10.23
2019-06-26T21:08:29.604Z,12.55
2019-06-26T21:10:59.265Z,14.78
2019-06-26T21:13:29.242Z,12.93
2019-06-26T21:15:59.257Z,11.35
2019-06-26T21:18:29.498Z,15.03
2019-06-26T21:20:59.555Z,15.68
2019-06-26T21:23:30.850Z,9.70
2019-06-26T21:26:00.553Z,10.45
2019-06-26T21:28:30.157Z,11.90
2019-06-26T21:31:00.000Z,14.40
2019-06-26T21:33:29.620Z,10.88
2019-06-26T21:35:59.517Z,12.43
2019-06-26T21:38:29.006Z,9.40
2019-06-26T21:40:58.453Z,12.80
2019-06-26T21:43:27.922Z,9.68
2019-06-26T21:45:57.537Z,10.85
2019-06-26T21:48:26.999Z,14.18
2019-06-26T21:50:56.505Z,11.50
2019-06-26T21:53:25.955Z,14.30
2019-06-26T21:55:55.442Z,12.10
2019-06-26T21:58:24.922Z,12.80
2019-06-26T22:00:54.461Z,9.68
2019-06-26T22:03:23.941Z,13.10
2019-06-26T22:05:53.407Z,14.25
2019-06-26T22:08:22.921Z,12.60
2019-06-26T22:10:52.494Z,14.43
2019-06-26T22:13:21.989Z,11.45
2019-06-26T22:15:51.421Z,12.73
2019-06-26T22:18:20.879Z,12.15
2019-06-26T22:20:50.330Z,12.37
2019-06-26T22:23:19.802Z,13.80
2019-06-26T22:25:51.187Z,16.93
2019-06-26T22:28:20.452Z,13.80
2019-06-26T22:30:50.056Z,14.90
2019-06-26T22:33:19.509Z,15.95
2019-06-26T22:35:48.991Z,16.67
2019-06-26T22:38:18.451Z,11.78
2019-06-26T22:40:47.887Z,17.35
2019-06-26T22:43:17.344Z,9.80
2019-06-26T22:45:46.804Z,15.90
2019-06-26T22:48:16.245Z,15.88
2019-06-26T22:50:46.121Z,11.83
2019-06-26T22:53:15.601Z,16.50
2019-06-26T22:55:45.045Z,16.45
2019-06-26T22:58:14.485Z,16.55
2019-06-26T23:00:47.594Z,19.12
2019-06-26T23:03:15.558Z,13.30
2019-06-26T23:05:45.056Z,14.70
2019-06-26T23:08:14.542Z,11.73
2019-06-26T23:10:43.990Z,11.68
2019-06-26T23:13:13.449Z,16.02
2019-06-26T23:15:42.977Z,18.82
2019-06-26T23:18:12.448Z,12.37
2019-06-26T23:20:42.547Z,17.67
2019-06-26T23:23:13.474Z,13.78
2019-06-26T23:25:42.887Z,10.25
2019-06-26T23:28:12.331Z,13.25
2019-06-26T23:30:41.826Z,21.25
2019-06-26T23:33:11.274Z,13.70
2019-06-26T23:35:40.736Z,13.53
2019-06-26T23:38:10.200Z,13.20
2019-06-26T23:40:39.732Z,18.70
2019-06-26T23:43:09.186Z,15.23
2019-06-26T23:45:38.671Z,17.40
2019-06-26T23:48:08.138Z,13.65
2019-06-26T23:50:37.597Z,15.63
2019-06-26T23:53:07.120Z,13.70
2019-06-26T23:55:36.502Z,17.80
2019-06-26T23:58:06.043Z,9.33
